Pagina principale
METAR-TAF:

METAR-TAF

Aeroporti :

La Chaux-de-Fonds, Svizzera

latitudine: 47-05-03N, longitudine: 006-47-37E, altezza: 1027 m

Osservazione

Il bollettino è stato emesso 12 minuti fa, alle 08:20 UTC
Vento 1 kt da direzioni variabili
Temperature 8°C
Umidità 87%
Pressione 1009 hPa
Visibilità 10 km o più
Nubi sparse ad un'altezza di 1000 ft
Nubi sparse ad un'altezza di 1300 ft
Nuvoloso ad un'altezza di 2200 ft

METAR: LSGC 070820Z VRB01KT 9999 SCT010 SCT013 BKN022 08/06 Q1009

Ora: 10:32 (08:32 UTC)

Previsione

Il bollettino è stato emesso 3 ore e 7 minuti fa, alle 05:25 UTC
Previsione valida dal 07 alle 06 UTC al 07 alle 15 UTC
Vento 3 kt da direzioni variabili
Visibilità 10 km o più
Nuvoloso ad un'altezza di 3000 ft
pioggia debole
Temporaneamente
dal 07 alle 06 UTC al 07 alle 12 UTC
Visibilità: 4500 m
Nuvoloso ad un'altezza di 1200 ft
pioggia

TAF: LSGC 070525Z 0706/0715 VRB03KT 9999 -RA BKN030 TEMPO 0706/0712 4500 RA BKN012

Osservazioni e previsioni meteorologiche di più di 4000 aeroporti (messaggi METAR e TAF).

Le stazioni disponibili sono rappresentate dai dischi gialli e rossi sulla carta.

Puntare il mouse per vedere il nome della stazione.

Clicca sopra per visualizzare le osservazioni e previsioni meteorologiche.

Per cambiare la mappa : fare clic sui pulsanti verdi con una croce nera per ingrandire, il pulsante verde con un trattino per diminuire, o sulla freccia verde per le mappe adiacenti.


METAR-TAF: